Time;durP1;ratioP1;P1;durP2;ratioP2;P2;SDS_P1;SDS_P2;PMS_P1;PMS_P2;Temp;Humidity;BMP_temperature;BMP_pressure;BME280_temperature;BME280_humidity;BME280_pressure;Samples;Min_cycle;Max_cycle;Signal;HPM_P1;HPM_P2
2021/04/11 00:02:00;;;;;;;2.55;0.90;;;17.30;46.30;;;;;;2598613;52;20919;-69
2021/04/11 00:04:27;;;;;;;2.35;0.88;;;17.30;46.30;;;;;;2618425;52;20978;-67
2021/04/11 00:06:53;;;;;;;3.03;0.68;;;17.30;46.30;;;;;;2374462;53;20991;-68
2021/04/11 00:09:19;;;;;;;1.27;0.68;;;17.30;46.40;;;;;;2593878;52;20890;-67
2021/04/11 00:11:46;;;;;;;1.95;0.70;;;17.20;46.40;;;;;;2346787;54;20971;-67
2021/04/11 00:14:12;;;;;;;4.43;0.77;;;17.20;46.40;;;;;;2369354;53;21733;-68
2021/04/11 00:16:38;;;;;;;2.05;0.75;;;17.20;46.60;;;;;;2339922;54;20955;-68
2021/04/11 00:19:05;;;;;;;2.55;0.90;;;17.10;46.60;;;;;;2342329;54;20953;-70
2021/04/11 00:21:32;;;;;;;1.75;0.70;;;17.10;46.80;;;;;;2556439;53;20957;-68
2021/04/11 00:23:59;;;;;;;1.95;0.70;;;17.10;47.00;;;;;;2345940;53;20956;-68
2021/04/11 00:26:25;;;;;;;1.95;0.68;;;17.10;47.50;;;;;;2583919;52;21069;-69
2021/04/11 00:28:51;;;;;;;1.80;0.73;;;17.10;47.20;;;;;;2353767;53;20914;-69
2021/04/11 00:31:18;;;;;;;1.92;0.80;;;17.10;47.10;;;;;;2370143;53;20941;-70
2021/04/11 00:33:44;;;;;;;1.92;0.70;;;17.10;47.20;;;;;;2622717;52;20977;-69
2021/04/11 00:36:12;;;;;;;3.35;0.93;;;17.00;47.20;;;;;;2370588;53;20970;-69
2021/04/11 00:38:38;;;;;;;2.33;0.88;;;17.10;47.10;;;;;;2588901;53;21514;-67
2021/04/11 00:41:56;;;;;;;2.60;0.88;;;17.10;47.20;;;;;;2604508;52;20978;-68
2021/04/11 00:44:23;;;;;;;4.40;0.82;;;17.10;47.20;;;;;;2347004;53;21004;-67
2021/04/11 00:46:56;;;;;;;3.33;0.80;;;17.10;46.90;;;;;;2318727;54;20981;-68
2021/04/11 00:49:35;;;;;;;2.10;0.90;;;17.10;46.70;;;;;;2319665;54;21057;-68
2021/04/11 00:52:05;;;;;;;1.80;0.65;;;17.20;46.60;;;;;;2622907;52;21037;-67
2021/04/11 00:54:32;;;;;;;2.05;0.80;;;17.20;47.20;;;;;;2573336;52;20962;-69
2021/04/11 00:57:00;;;;;;;2.37;0.77;;;17.20;47.20;;;;;;2350884;53;20942;-67
2021/04/11 00:59:26;;;;;;;2.20;0.65;;;17.20;47.20;;;;;;2358970;53;20990;-68
2021/04/11 01:01:56;;;;;;;2.70;0.90;;;17.30;47.30;;;;;;2589210;53;21014;-67
2021/04/11 01:04:22;;;;;;;3.28;0.70;;;17.30;47.00;;;;;;2344999;53;22091;-67
2021/04/11 01:07:02;;;;;;;3.08;0.90;;;17.30;47.10;;;;;;2370345;53;20906;-68
2021/04/11 01:09:38;;;;;;;3.30;0.85;;;17.30;46.90;;;;;;2350564;53;21110;-67
2021/04/11 01:12:07;;;;;;;2.37;0.70;;;17.30;47.00;;;;;;2600320;52;20947;-68
2021/04/11 01:14:33;;;;;;;1.75;0.70;;;17.30;47.10;;;;;;2609429;52;21725;-67
2021/04/11 01:17:03;;;;;;;1.92;0.80;;;17.30;47.00;;;;;;2354321;53;21505;-67
2021/04/11 01:19:36;;;;;;;2.30;0.75;;;17.30;47.00;;;;;;2370415;53;20910;-67
2021/04/11 01:25:14;;;;;;;1.70;0.70;;;17.30;46.90;;;;;;2370442;53;21739;-68
2021/04/11 01:27:40;;;;;;;2.10;0.93;;;17.30;46.40;;;;;;2366541;53;20940;-68
2021/04/11 01:30:27;;;;;;;3.15;0.90;;;17.30;47.20;;;;;;2340155;54;21479;-67
2021/04/11 01:32:54;;;;;;;2.53;0.80;;;17.30;47.20;;;;;;2351093;54;20981;-69
2021/04/11 01:35:24;;;;;;;3.45;1.15;;;17.30;47.20;;;;;;2370805;53;21025;-67
2021/04/11 01:37:51;;;;;;;2.30;0.90;;;17.30;47.00;;;;;;2369670;53;20983;-67
2021/04/11 01:40:21;;;;;;;2.70;0.90;;;17.30;47.20;;;;;;2351537;53;21889;-67
2021/04/11 01:42:47;;;;;;;2.22;0.90;;;17.30;47.00;;;;;;2623207;52;20965;-67
2021/04/11 01:45:15;;;;;;;2.65;0.98;;;17.30;46.80;;;;;;2366096;53;20983;-68
2021/04/11 01:47:41;;;;;;;2.97;0.88;;;17.30;46.90;;;;;;2605545;52;21074;-67
2021/04/11 01:50:10;;;;;;;2.67;0.90;;;17.30;46.60;;;;;;2600157;52;21740;-68
2021/04/11 01:52:36;;;;;;;2.40;0.98;;;17.30;46.50;;;;;;2367112;53;20981;-69
2021/04/11 01:55:04;;;;;;;2.37;0.90;;;17.30;46.80;;;;;;2370846;53;21018;-68
2021/04/11 01:57:31;;;;;;;1.80;0.80;;;17.40;46.60;;;;;;2624062;52;20918;-67
2021/04/11 02:01:39;;;;;;;3.28;1.23;;;17.40;46.60;;;;;;2351406;54;21353;-67
2021/04/11 02:04:06;;;;;;;2.60;0.90;;;17.30;46.00;;;;;;2622004;52;20954;-68
2021/04/11 02:06:35;;;;;;;2.28;0.90;;;17.40;46.70;;;;;;2373764;53;20981;-68
2021/04/11 02:09:11;;;;;;;6.00;0.77;;;17.40;46.50;;;;;;2595381;52;20954;-68
2021/04/11 02:11:38;;;;;;;1.77;0.70;;;17.50;46.30;;;;;;2350908;53;20911;-67
2021/04/11 02:14:04;;;;;;;2.92;0.70;;;17.30;46.50;;;;;;2370516;53;20946;-69
2021/04/11 02:16:33;;;;;;;2.87;0.80;;;17.40;46.50;;;;;;2370813;53;20953;-68
2021/04/11 02:19:10;;;;;;;1.90;0.73;;;17.30;46.40;;;;;;2370987;53;21758;-69
2021/04/11 02:21:37;;;;;;;3.12;1.00;;;17.40;46.30;;;;;;2370602;53;21009;-68
2021/04/11 02:24:05;;;;;;;2.47;1.00;;;17.40;46.20;;;;;;2374466;53;21046;-67
2021/04/11 02:26:32;;;;;;;4.20;1.30;;;17.40;45.90;;;;;;2362936;53;20930;-68
2021/04/11 02:29:02;;;;;;;2.35;0.88;;;17.40;46.00;;;;;;2609325;52;21462;-67
2021/04/11 02:31:28;;;;;;;3.00;0.80;;;17.40;46.20;;;;;;2555825;53;20925;-69
2021/04/11 02:34:01;;;;;;;2.00;0.77;;;17.40;46.40;;;;;;2334646;54;20939;-68
2021/04/11 02:36:28;;;;;;;2.53;0.80;;;17.30;46.40;;;;;;2318984;54;20972;-67
2021/04/11 02:38:55;;;;;;;2.50;0.98;;;17.30;46.30;;;;;;2567929;52;20901;-68
2021/04/11 02:41:23;;;;;;;1.67;0.70;;;17.40;46.30;;;;;;2588801;53;20991;-69
2021/04/11 02:43:49;;;;;;;2.87;0.90;;;17.40;46.30;;;;;;2369293;53;20938;-67
2021/04/11 02:46:27;;;;;;;2.30;0.90;;;17.30;46.30;;;;;;2363150;53;20951;-68
2021/04/11 02:48:54;;;;;;;2.65;1.00;;;17.40;46.10;;;;;;2371309;53;20950;-69
2021/04/11 02:51:23;;;;;;;3.10;1.10;;;17.40;46.40;;;;;;2622233;52;21026;-69
2021/04/11 02:53:49;;;;;;;2.85;0.88;;;17.40;46.20;;;;;;2623297;52;20933;-68
2021/04/11 02:56:16;;;;;;;3.10;0.95;;;17.40;46.20;;;;;;2366021;53;20967;-69
2021/04/11 02:58:42;;;;;;;5.30;1.00;;;17.40;46.20;;;;;;2341502;53;20931;-67
2021/04/11 03:08:00;;;;;;;3.12;1.02;;;17.30;46.20;;;;;;2334542;54;20992;-67
2021/04/11 03:13:03;;;;;;;2.95;0.88;;;17.40;45.60;;;;;;2353025;53;21715;-69
2021/04/11 03:15:30;;;;;;;3.00;0.80;;;17.40;45.80;;;;;;2371154;53;20946;-67
2021/04/11 03:17:56;;;;;;;2.45;0.90;;;17.40;46.60;;;;;;2604544;52;21003;-68
2021/04/11 03:20:29;;;;;;;3.50;1.00;;;17.40;46.50;;;;;;2613596;52;20923;-70
2021/04/11 03:22:58;;;;;;;2.58;0.70;;;17.40;46.30;;;;;;2623039;52;21057;-68
2021/04/11 03:25:25;;;;;;;2.47;0.90;;;17.40;46.50;;;;;;2594680;52;20940;-69
2021/04/11 03:29:50;;;;;;;3.03;1.02;;;17.40;46.30;;;;;;2371454;53;21424;-69
2021/04/11 03:32:41;;;;;;;2.92;0.73;;;17.40;44.80;;;;;;2592392;52;21398;-68
2021/04/11 03:35:08;;;;;;;2.65;1.05;;;17.30;45.80;;;;;;2363048;53;20956;-68
2021/04/11 03:37:34;;;;;;;2.42;0.90;;;17.30;46.20;;;;;;2371413;53;20938;-68
2021/04/11 03:40:04;;;;;;;2.28;0.95;;;17.30;46.10;;;;;;2341017;54;20884;-67
2021/04/11 03:42:30;;;;;;;3.62;1.05;;;17.30;46.00;;;;;;2364179;53;20929;-68
2021/04/11 03:44:56;;;;;;;2.72;1.12;;;17.30;46.10;;;;;;2619081;52;21522;-67
2021/04/11 03:47:36;;;;;;;1.87;0.82;;;17.30;46.20;;;;;;2350672;53;21034;-69
2021/04/11 03:50:12;;;;;;;2.40;0.90;;;17.40;45.90;;;;;;2352534;53;21440;-69
2021/04/11 03:53:03;;;;;;;3.05;1.00;;;17.40;46.20;;;;;;2595531;52;20963;-69
2021/04/11 03:55:32;;;;;;;2.50;0.77;;;17.40;45.80;;;;;;2352714;53;20992;-68
2021/04/11 04:01:31;;;;;;;2.47;0.80;;;17.40;45.90;;;;;;2594689;52;20979;-69
2021/04/11 04:04:01;;;;;;;2.22;0.85;;;17.50;46.70;;;;;;2371425;53;20922;-69
2021/04/11 04:06:40;;;;;;;2.62;0.90;;;17.40;46.60;;;;;;2347647;53;21611;-70
2021/04/11 04:09:08;;;;;;;2.05;0.80;;;17.30;46.30;;;;;;2350759;53;20930;-67
2021/04/11 04:16:58;;;;;;;4.03;1.10;;;17.30;46.70;;;;;;2352359;53;20955;-68
2021/04/11 04:24:32;;;;;;;3.87;1.00;;;17.30;46.20;;;;;;2622982;52;21822;-68
2021/04/11 04:27:16;;;;;;;2.78;1.00;;;17.30;45.70;;;;;;2336227;53;21008;-67
2021/04/11 04:36:37;;;;;;;3.22;0.90;;;17.20;46.10;;;;;;2594003;52;21021;-68
2021/04/11 04:39:32;;;;;;;3.10;0.80;;;17.20;46.50;;;;;;2370938;53;21017;-70
2021/04/11 04:45:19;;;;;;;2.28;0.77;;;17.20;46.30;;;;;;2603899;52;21048;-69
2021/04/11 04:48:11;;;;;;;1.95;0.70;;;17.10;46.20;;;;;;2584331;53;20960;-69
2021/04/11 04:50:57;;;;;;;3.33;0.85;;;17.10;46.90;;;;;;2338742;53;21918;-68
2021/04/11 04:53:35;;;;;;;3.30;0.77;;;17.10;46.90;;;;;;2584928;53;21007;-67
2021/04/11 04:56:02;;;;;;;2.10;0.80;;;17.00;46.80;;;;;;2589023;53;20953;-67
2021/04/11 04:59:07;;;;;;;4.00;0.82;;;17.00;47.10;;;;;;2342723;53;20949;-70
2021/04/11 05:01:39;;;;;;;2.78;0.80;;;17.00;46.60;;;;;;2586521;53;20940;-69
2021/04/11 05:04:13;;;;;;;;;;;17.00;47.10;;;;;;2345641;53;21000;-69
2021/04/11 05:06:44;;;;;;;4.40;0.80;;;17.00;46.40;;;;;;2343700;53;20051;-68
2021/04/11 05:10:00;;;;;;;1.48;0.62;;;17.00;47.10;;;;;;2587468;53;20921;-69
2021/04/11 05:12:39;;;;;;;1.73;0.60;;;17.00;46.70;;;;;;2342744;53;21300;-69
2021/04/11 05:15:49;;;;;;;1.65;0.70;;;16.90;47.20;;;;;;2341387;53;20944;-68
2021/04/11 05:18:32;;;;;;;3.05;0.62;;;16.90;47.20;;;;;;2318143;53;20980;-69
2021/04/11 05:21:38;;;;;;;2.42;0.60;;;16.90;47.20;;;;;;2342397;53;20961;-69
2021/04/11 05:24:08;;;;;;;1.77;0.60;;;16.90;47.20;;;;;;2342993;53;20998;-69
2021/04/11 05:26:43;;;;;;;2.33;0.70;;;16.90;47.80;;;;;;2368801;53;21803;-68
2021/04/11 05:29:39;;;;;;;2.33;0.80;;;16.90;47.50;;;;;;2586107;52;20986;-68
2021/04/11 05:32:05;;;;;;;1.87;0.73;;;16.90;47.50;;;;;;2350168;56;21081;-67
2021/04/11 05:34:32;;;;;;;3.00;1.00;;;16.90;48.00;;;;;;2597758;52;20943;-68
2021/04/11 05:37:20;;;;;;;3.28;0.77;;;16.90;47.90;;;;;;2363098;54;21970;-69
2021/04/11 05:39:54;;;;;;;2.42;0.70;;;16.90;47.70;;;;;;2372258;53;20946;-67
2021/04/11 05:44:02;;;;;;;1.90;0.70;;;16.90;47.90;;;;;;2621677;52;21751;-68
2021/04/11 05:46:44;;;;;;;1.58;0.60;;;16.90;47.50;;;;;;2370439;53;20926;-69
2021/04/11 05:49:14;;;;;;;2.78;0.90;;;16.90;47.90;;;;;;2616686;52;20991;-67
2021/04/11 05:51:46;;;;;;;1.85;0.70;;;17.00;47.90;;;;;;2573167;52;21052;-68
2021/04/11 05:54:33;;;;;;;2.90;0.88;;;17.00;47.80;;;;;;2350046;54;20986;-68
2021/04/11 05:57:07;;;;;;;2.35;0.70;;;17.00;47.30;;;;;;2605668;52;21026;-70
2021/04/11 05:59:36;;;;;;;2.00;0.80;;;17.00;47.50;;;;;;2363226;53;21493;-67
2021/04/11 06:02:06;;;;;;;2.30;0.77;;;17.10;47.50;;;;;;2622794;52;20950;-67
2021/04/11 06:04:47;;;;;;;2.87;1.00;;;17.10;47.50;;;;;;2369988;53;21009;-67
2021/04/11 06:10:16;;;;;;;2.50;0.90;;;17.10;47.10;;;;;;2623397;52;21433;-69
2021/04/11 06:13:31;;;;;;;1.98;0.68;;;17.20;46.60;;;;;;2618104;52;21040;-70
2021/04/11 06:16:11;;;;;;;2.40;0.82;;;17.20;46.80;;;;;;2360407;53;20957;-69
2021/04/11 06:18:42;;;;;;;2.72;0.85;;;17.20;47.50;;;;;;2370731;53;21022;-69
2021/04/11 06:21:30;;;;;;;2.12;0.70;;;17.30;47.40;;;;;;2369794;53;20933;-69
2021/04/11 06:24:02;;;;;;;2.78;0.60;;;17.30;47.60;;;;;;2373546;53;20950;-69
2021/04/11 06:26:39;;;;;;;2.92;0.70;;;17.30;47.90;;;;;;2370733;53;20954;-67
2021/04/11 06:29:25;;;;;;;3.17;0.80;;;17.40;47.60;;;;;;2605015;52;21658;-69
2021/04/11 06:32:06;;;;;;;2.47;0.80;;;17.40;47.30;;;;;;2364014;53;21806;-68
2021/04/11 06:34:49;;;;;;;2.28;0.85;;;17.50;47.30;;;;;;2355449;53;20918;-68
2021/04/11 06:37:17;;;;;;;2.22;0.75;;;17.50;47.20;;;;;;2362676;53;21711;-70
2021/04/11 06:39:47;;;;;;;1.95;0.70;;;17.60;47.50;;;;;;2351829;53;20951;-67
2021/04/11 06:44:00;;;;;;;2.80;0.90;;;17.70;47.00;;;;;;2593596;52;21268;-67
2021/04/11 06:46:50;;;;;;;1.95;0.85;;;17.70;46.30;;;;;;2370549;53;21732;-67
2021/04/11 06:49:43;;;;;;;2.45;0.77;;;17.80;46.60;;;;;;2572808;53;20921;-68
2021/04/11 06:55:43;;;;;;;3.20;0.75;;;17.80;46.70;;;;;;2561790;53;21564;-70
2021/04/11 07:03:08;;;;;;;1.73;0.90;;;18.00;46.20;;;;;;2587577;52;20976;-70
2021/04/11 07:12:31;;;;;;;2.37;0.93;;;18.10;46.40;;;;;;2341383;53;20941;-70
2021/04/11 07:15:27;;;;;;;2.92;1.20;;;18.50;46.40;;;;;;2577673;53;21752;-67
2021/04/11 07:18:32;;;;;;;4.50;1.10;;;18.70;47.00;;;;;;2318333;55;20937;-67
2021/04/11 07:22:54;;;;;;;4.05;1.10;;;18.80;47.30;;;;;;2587365;53;21507;-67
2021/04/11 07:25:39;;;;;;;2.97;0.90;;;19.10;46.70;;;;;;2566492;53;20983;-68
2021/04/11 07:31:22;;;;;;;2.67;0.80;;;19.30;46.60;;;;;;2572911;53;21022;-68
2021/04/11 07:34:04;;;;;;;2.70;1.00;;;19.60;45.90;;;;;;2347836;53;21323;-68
2021/04/11 07:36:43;;;;;;;2.43;1.00;;;19.80;46.10;;;;;;2589053;53;20980;-70
2021/04/11 07:39:17;;;;;;;4.10;1.50;;;19.90;45.20;;;;;;2330947;53;21458;-68
2021/04/11 07:45:22;;;;;;;2.50;0.93;;;20.00;45.70;;;;;;2580310;53;21393;-69
2021/04/11 07:48:25;;;;;;;2.87;1.08;;;20.10;46.00;;;;;;2338608;54;21100;-69
2021/04/11 07:52:33;;;;;;;3.95;1.10;;;20.40;45.80;;;;;;2569124;53;20991;-70
2021/04/11 07:55:34;;;;;;;2.62;1.10;;;20.40;45.70;;;;;;2302472;55;20984;-69
2021/04/11 07:58:34;;;;;;;1.80;0.80;;;20.60;44.80;;;;;;2594128;52;21764;-69
2021/04/11 08:04:26;;;;;;;1.90;0.70;;;20.70;44.50;;;;;;2341390;53;21004;-69
2021/04/11 08:10:34;;;;;;;2.10;0.80;;;20.70;44.50;;;;;;2333678;54;20913;-70
2021/04/11 08:16:22;;;;;;;2.87;0.82;;;20.80;44.40;;;;;;2316611;54;21023;-71
2021/04/11 08:20:32;;;;;;;1.55;0.52;;;20.90;44.50;;;;;;2598136;52;21041;-70
2021/04/11 08:24:46;;;;;;;1.35;0.50;;;21.00;45.60;;;;;;2593316;52;20989;-68
2021/04/11 08:30:28;;;;;;;3.30;0.70;;;21.10;45.20;;;;;;2366806;53;20988;-70
2021/04/11 08:33:38;;;;;;;1.67;0.60;;;21.10;44.70;;;;;;2363415;53;20927;-70
2021/04/11 08:46:22;;;;;;;1.87;0.80;;;21.30;45.00;;;;;;2365685;53;20969;-69
2021/04/11 08:56:52;;;;;;;2.12;0.70;;;21.80;46.20;;;;;;2366945;53;21396;-68
2021/04/11 09:00:13;;;;;;;1.17;0.50;;;22.10;46.10;;;;;;2366540;53;20955;-68
2021/04/11 09:03:22;;;;;;;1.25;0.40;;;22.20;44.40;;;;;;2366720;53;21403;-69
2021/04/11 09:09:08;;;;;;;2.87;0.55;;;22.20;44.80;;;;;;2594977;52;20943;-68
2021/04/11 09:17:43;;;;;;;2.10;0.50;;;22.20;45.20;;;;;;2371593;53;21872;-68
2021/04/11 09:23:48;;;;;;;2.87;0.77;;;22.30;44.10;;;;;;2369778;53;20934;-68
2021/04/11 09:28:16;;;;;;;2.03;0.60;;;22.30;44.20;;;;;;2622285;52;20954;-69
2021/04/11 09:39:02;;;;;;;1.70;0.60;;;22.30;44.40;;;;;;2600323;52;20904;-68
2021/04/11 09:42:24;;;;;;;2.33;0.70;;;22.30;44.20;;;;;;2622517;52;20950;-70
2021/04/11 09:50:10;;;;;;;2.58;0.90;;;22.20;43.60;;;;;;2350442;53;20985;-68
2021/04/11 09:53:21;;;;;;;3.25;0.77;;;22.20;43.50;;;;;;2622870;52;21010;-69
2021/04/11 09:56:14;;;;;;;2.53;1.00;;;22.20;42.60;;;;;;2370606;53;21411;-70
2021/04/11 10:08:06;;;;;;;4.20;1.90;;;22.10;42.10;;;;;;2622316;52;20952;-67
2021/04/11 10:10:48;;;;;;;3.07;1.50;;;22.00;42.70;;;;;;2603251;52;21507;-64
2021/04/11 10:13:35;;;;;;;2.47;1.10;;;21.90;42.20;;;;;;2618165;52;21269;-63
2021/04/11 10:17:11;;;;;;;2.58;1.05;;;21.80;41.80;;;;;;2332959;53;20947;-63
2021/04/11 10:20:14;;;;;;;2.33;1.00;;;21.80;41.40;;;;;;2555843;53;20951;-63
2021/04/11 10:22:48;;;;;;;3.50;0.90;;;21.70;42.20;;;;;;2572762;53;21636;-66
2021/04/11 10:25:35;;;;;;;2.47;0.88;;;21.80;42.30;;;;;;2337016;53;20969;-63
2021/04/11 10:29:05;;;;;;;2.72;0.80;;;21.70;41.60;;;;;;2587656;53;20952;-67
2021/04/11 10:33:26;;;;;;;1.98;0.70;;;21.70;41.80;;;;;;2340340;54;20981;-66
2021/04/11 10:35:58;;;;;;;1.83;0.60;;;21.70;41.60;;;;;;2335729;54;20996;-63
2021/04/11 10:38:37;;;;;;;2.72;1.00;;;21.70;42.20;;;;;;2327386;54;20959;-64
2021/04/11 10:43:21;;;;;;;4.20;1.70;;;21.70;42.00;;;;;;2578300;53;20894;-63
2021/04/11 10:47:13;;;;;;;4.95;2.78;;;21.70;40.90;;;;;;2323662;54;20934;-63
2021/04/11 10:50:39;;;;;;;10.93;5.03;;;21.60;41.60;;;;;;2554250;53;20965;-63
2021/04/11 10:56:16;;;;;;;5.43;2.50;;;21.60;39.80;;;;;;2334262;53;21004;-67
2021/04/11 11:00:17;;;;;;;3.15;1.23;;;21.50;41.30;;;;;;2345884;54;20944;-66
2021/04/11 11:03:10;;;;;;;3.58;0.70;;;21.50;42.30;;;;;;2572093;52;20964;-68
2021/04/11 11:06:09;;;;;;;2.97;0.60;;;21.50;42.00;;;;;;2557734;53;21016;-70
2021/04/11 11:09:08;;;;;;;2.15;0.70;;;21.60;42.80;;;;;;2319438;54;20936;-68
2021/04/11 11:17:44;;;;;;;1.80;0.70;;;21.90;44.50;;;;;;2584713;52;20917;-65
2021/04/11 11:22:58;;;;;;;2.47;0.93;;;22.80;44.90;;;;;;2568190;53;20934;-65
2021/04/11 11:25:54;;;;;;;2.83;0.98;;;24.40;45.70;;;;;;2613174;52;21638;-66
2021/04/11 11:35:22;;;;;;;3.33;1.12;;;24.80;44.00;;;;;;2361287;53;20906;-67
2021/04/11 11:38:12;;;;;;;2.70;0.85;;;25.00;42.70;;;;;;2588124;52;21045;-67
2021/04/11 11:40:52;;;;;;;1.52;0.60;;;24.80;39.90;;;;;;2607749;52;21013;-72
2021/04/11 11:46:30;;;;;;;2.03;0.77;;;24.60;39.90;;;;;;2369774;53;21777;-65
2021/04/11 11:49:06;;;;;;;5.93;1.62;;;24.40;39.60;;;;;;2369364;53;20970;-66
2021/04/11 11:53:10;;;;;;;2.60;1.12;;;24.10;40.10;;;;;;2596808;52;20980;-67
2021/04/11 11:55:44;;;;;;;2.15;0.93;;;23.80;39.20;;;;;;2621937;52;20961;-67
2021/04/11 11:58:22;;;;;;;5.60;1.15;;;23.70;39.30;;;;;;2541864;54;21495;-68
2021/04/11 12:00:59;;;;;;;2.08;0.70;;;23.60;39.00;;;;;;2318158;53;20978;-66
2021/04/11 12:03:32;;;;;;;2.75;0.90;;;23.40;39.30;;;;;;2585486;53;20922;-67
2021/04/11 12:06:47;;;;;;;2.87;0.70;;;23.30;39.20;;;;;;2577085;53;21046;-69
2021/04/11 12:11:57;;;;;;;4.45;1.73;;;23.20;40.10;;;;;;2542867;53;21829;-69
2021/04/11 12:15:14;;;;;;;5.70;1.70;;;23.10;39.70;;;;;;2587504;53;20915;-71
2021/04/11 12:18:03;;;;;;;3.25;1.15;;;23.20;40.70;;;;;;2337744;53;20962;-69
2021/04/11 12:20:40;;;;;;;3.10;1.55;;;23.20;40.10;;;;;;2586401;52;21008;-74
2021/04/11 12:23:20;;;;;;;3.35;0.80;;;23.30;40.10;;;;;;2596974;52;21108;-67
2021/04/11 12:25:47;;;;;;;1.67;0.60;;;23.30;40.10;;;;;;2335281;53;21011;-67
2021/04/11 12:28:24;;;;;;;2.22;0.65;;;23.30;40.60;;;;;;2581757;53;21511;-68
2021/04/11 12:30:52;;;;;;;1.95;0.45;;;23.30;40.00;;;;;;2587510;53;20983;-67
2021/04/11 12:33:38;;;;;;;1.95;0.50;;;23.20;40.50;;;;;;2340467;53;20964;-68
2021/04/11 12:36:37;;;;;;;2.58;0.80;;;23.20;39.90;;;;;;2578505;53;20973;-69
2021/04/11 12:39:26;;;;;;;3.55;0.85;;;23.10;39.60;;;;;;2325430;54;20945;-68
2021/04/11 12:42:49;;;;;;;2.58;0.70;;;23.10;39.80;;;;;;2341630;54;20964;-70
2021/04/11 12:45:31;;;;;;;1.90;0.80;;;23.00;39.60;;;;;;2554710;53;20952;-69
2021/04/11 12:48:50;;;;;;;1.63;0.67;;;22.90;39.40;;;;;;2342566;53;20981;-71
2021/04/11 12:51:22;;;;;;;2.28;0.70;;;22.80;39.40;;;;;;2359931;54;21493;-73
2021/04/11 12:54:00;;;;;;;2.03;0.65;;;22.80;40.40;;;;;;2622201;52;20942;-71
2021/04/11 12:56:27;;;;;;;1.87;0.60;;;22.70;40.40;;;;;;2592887;52;21404;-67
2021/04/11 12:58:58;;;;;;;1.85;0.60;;;22.60;40.90;;;;;;2600770;52;21024;-77
2021/04/11 13:01:44;;;;;;;1.48;0.50;;;22.50;41.10;;;;;;2354026;53;20930;-68
2021/04/11 13:04:46;;;;;;;1.65;0.70;;;22.50;40.70;;;;;;2369621;53;20969;-66
2021/04/11 13:07:27;;;;;;;1.58;0.62;;;22.40;40.80;;;;;;2370002;53;20894;-67
2021/04/11 13:11:15;;;;;;;1.40;0.60;;;22.20;40.90;;;;;;2600763;52;21071;-67
2021/04/11 13:13:43;;;;;;;3.08;1.30;;;22.00;40.70;;;;;;2370746;53;20961;-66
2021/04/11 13:16:48;;;;;;;1.48;0.50;;;21.80;41.50;;;;;;2349913;53;21011;-64
2021/04/11 13:19:19;;;;;;;1.33;0.50;;;21.60;41.50;;;;;;2370490;53;20926;-68
2021/04/11 13:21:58;;;;;;;2.92;0.77;;;21.40;42.00;;;;;;2370813;53;21002;-72
2021/04/11 13:24:34;;;;;;;1.77;0.52;;;21.20;42.10;;;;;;2371048;53;21422;-77
2021/04/11 13:30:10;;;;;;;2.45;0.50;;;21.00;42.40;;;;;;2615417;52;21395;-67
2021/04/11 13:33:24;;;;;;;1.33;0.50;;;20.70;42.40;;;;;;2622612;52;20930;-68
2021/04/11 13:36:30;;;;;;;2.40;0.60;;;20.50;43.10;;;;;;2341213;55;20961;-71
2021/04/11 13:39:10;;;;;;;2.22;0.60;;;20.30;43.60;;;;;;2333043;53;20985;-67
2021/04/11 13:42:11;;;;;;;2.60;0.80;;;20.10;44.00;;;;;;2598978;52;20967;-69
2021/04/11 13:45:14;;;;;;;2.92;0.60;;;20.00;44.40;;;;;;2599968;52;21481;-67
2021/04/11 13:48:21;;;;;;;2.97;0.77;;;19.80;44.60;;;;;;2618142;52;20927;-68
2021/04/11 13:57:39;;;;;;;2.53;0.70;;;19.60;44.70;;;;;;2355824;53;20942;-68
2021/04/11 14:01:21;;;;;;;1.62;0.55;;;19.50;45.10;;;;;;2622255;52;20918;-71
2021/04/11 14:04:12;;;;;;;1.05;0.52;;;19.10;45.50;;;;;;2622318;52;20929;-72
2021/04/11 14:06:53;;;;;;;3.70;0.90;;;19.00;46.00;;;;;;2368963;53;21057;-69
2021/04/11 14:09:55;;;;;;;3.33;0.90;;;18.90;46.60;;;;;;2344939;53;20922;-72
2021/04/11 14:12:31;;;;;;;2.35;0.90;;;18.80;46.90;;;;;;2622963;52;21066;-69
2021/04/11 14:15:14;;;;;;;1.90;0.70;;;18.80;47.30;;;;;;2623145;52;20977;-71
2021/04/11 14:17:50;;;;;;;1.92;0.85;;;18.70;47.60;;;;;;2369340;53;20906;-74
2021/04/11 14:20:35;;;;;;;2.83;1.00;;;18.60;47.80;;;;;;2369679;53;21005;-68
2021/04/11 14:23:29;;;;;;;1.98;0.80;;;18.60;48.20;;;;;;2343541;53;20965;-67
2021/04/11 14:26:17;;;;;;;4.72;2.50;;;18.50;48.30;;;;;;2364526;53;21798;-66
2021/04/11 14:28:53;;;;;;;3.80;1.77;;;18.50;48.10;;;;;;2370455;53;20938;-73
2021/04/11 14:31:54;;;;;;;4.43;1.80;;;18.40;48.30;;;;;;2370039;53;20958;-67
2021/04/11 14:36:08;;;;;;;4.37;1.77;;;18.30;49.10;;;;;;2343077;54;20962;-67
2021/04/11 14:39:37;;;;;;;2.33;0.90;;;18.30;49.00;;;;;;2612422;52;20956;-67
2021/04/11 14:42:24;;;;;;;1.75;0.70;;;18.10;48.50;;;;;;2617172;52;20953;-70
2021/04/11 14:44:59;;;;;;;1.67;0.50;;;17.90;48.30;;;;;;2369808;53;20997;-71
2021/04/11 14:47:54;;;;;;;1.40;0.50;;;17.80;48.10;;;;;;2372160;53;20918;-72
2021/04/11 14:50:34;;;;;;;1.42;0.47;;;17.60;48.40;;;;;;2369653;53;20988;-69
2021/04/11 14:54:52;;;;;;;1.23;0.43;;;17.50;48.60;;;;;;2370180;53;21833;-69
2021/04/11 14:57:55;;;;;;;0.90;0.30;;;17.30;49.00;;;;;;2358158;53;20974;-69
2021/04/11 15:00:40;;;;;;;1.80;0.35;;;17.10;49.10;;;;;;2366858;53;20985;-66
2021/04/11 15:09:15;;;;;;;35.88;20.12;;;17.00;49.40;;;;;;2369371;53;21521;-69
2021/04/11 15:11:52;;;;;;;6.03;3.12;;;16.80;49.40;;;;;;2370331;53;20957;-67
2021/04/11 15:14:22;;;;;;;5.93;3.03;;;16.60;49.70;;;;;;2622453;52;21622;-67
2021/04/11 15:17:18;;;;;;;6.40;2.92;;;16.50;50.30;;;;;;2370410;53;20906;-67
2021/04/11 15:20:19;;;;;;;5.35;2.80;;;16.30;51.30;;;;;;2369464;53;20938;-66
2021/04/11 15:23:19;;;;;;;4.03;1.95;;;16.30;51.80;;;;;;2369739;53;21483;-67
2021/04/11 15:25:56;;;;;;;4.43;1.62;;;16.20;51.90;;;;;;2369792;53;21026;-67
2021/04/11 15:28:46;;;;;;;2.80;1.30;;;16.20;51.70;;;;;;2369601;53;20925;-67
2021/04/11 15:36:15;;;;;;;1.45;0.68;;;16.10;51.90;;;;;;2622429;52;20926;-67
2021/04/11 15:38:54;;;;;;;1.67;0.60;;;16.00;51.10;;;;;;2582656;52;1699322;-67
2021/04/11 15:41:31;;;;;;;1.12;0.50;;;15.90;51.20;;;;;;2609108;52;20935;-66
2021/04/11 15:44:15;;;;;;;0.93;0.37;;;15.80;51.60;;;;;;2573416;52;20907;-67
2021/04/11 15:48:33;;;;;;;0.30;0.20;;;15.70;51.90;;;;;;2622135;52;21415;-68
2021/04/11 15:54:03;;;;;;;0.37;0.30;;;15.70;52.20;;;;;;2564424;52;20985;-66
2021/04/11 15:56:41;;;;;;;0.70;0.28;;;15.60;52.20;;;;;;2622561;52;20974;-69
2021/04/11 15:59:34;;;;;;;1.25;0.40;;;15.50;52.30;;;;;;2369695;53;21004;-69
2021/04/11 16:02:26;;;;;;;2.03;0.80;;;15.50;52.70;;;;;;2345953;54;21030;-70
2021/04/11 16:05:18;;;;;;;3.20;1.87;;;15.40;53.20;;;;;;2622082;52;21731;-67
2021/04/11 16:07:57;;;;;;;2.95;1.42;;;15.30;53.60;;;;;;2588405;52;21002;-73
2021/04/11 16:10:28;;;;;;;2.20;1.00;;;15.30;53.30;;;;;;2594203;52;21318;-67
2021/04/11 16:14:29;;;;;;;2.45;1.10;;;15.20;53.50;;;;;;2622289;52;20972;-66
2021/04/11 16:19:35;;;;;;;2.08;0.90;;;15.20;54.10;;;;;;2369770;53;20934;-66
2021/04/11 16:22:34;;;;;;;4.00;1.33;;;15.10;54.10;;;;;;2361927;53;21058;-66
2021/04/11 16:28:13;;;;;;;2.42;1.15;;;15.10;54.50;;;;;;2565005;53;21012;-67
2021/04/11 16:32:39;;;;;;;4.35;1.27;;;15.00;54.60;;;;;;2346377;53;20894;-66
2021/04/11 16:39:07;;;;;;;2.80;1.50;;;15.00;55.30;;;;;;2621968;52;21522;-66
2021/04/11 16:41:54;;;;;;;3.87;1.83;;;14.90;55.80;;;;;;2338092;53;20973;-67
2021/04/11 16:44:44;;;;;;;6.62;3.22;;;14.90;56.40;;;;;;2358836;53;21049;-65
2021/04/11 16:47:25;;;;;;;4.37;2.25;;;14.80;57.20;;;;;;2343155;54;21042;-66
2021/04/11 16:50:18;;;;;;;3.92;1.87;;;14.80;57.80;;;;;;2351957;53;20933;-64
2021/04/11 16:53:25;;;;;;;3.08;1.52;;;14.80;58.60;;;;;;2373658;53;21777;-65
2021/04/11 16:56:08;;;;;;;2.90;1.45;;;14.80;59.10;;;;;;2370097;53;20958;-64
2021/04/11 16:58:44;;;;;;;2.00;0.93;;;14.70;59.60;;;;;;2369715;53;21368;-65
2021/04/11 17:01:33;;;;;;;2.62;0.70;;;14.70;59.90;;;;;;2562512;53;20961;-65
2021/04/11 17:04:15;;;;;;;1.92;0.80;;;14.70;60.20;;;;;;2588645;52;20953;-65
2021/04/11 17:06:59;;;;;;;1.50;0.68;;;14.60;60.50;;;;;;2373676;53;21149;-65
2021/04/11 17:09:34;;;;;;;1.17;0.45;;;14.60;61.00;;;;;;2369563;53;20958;-65
2021/04/11 17:12:46;;;;;;;3.40;0.75;;;14.60;61.30;;;;;;2368486;53;21031;-66
2021/04/11 17:15:29;;;;;;;1.80;0.68;;;14.60;62.00;;;;;;2327248;55;21013;-65
2021/04/11 17:18:03;;;;;;;1.85;0.80;;;14.60;62.50;;;;;;2608695;52;20931;-65
2021/04/11 17:21:12;;;;;;;2.00;0.70;;;14.60;62.80;;;;;;2350198;53;20980;-65
2021/04/11 17:23:40;;;;;;;2.85;1.17;;;14.60;63.20;;;;;;2354829;53;21486;-65
2021/04/11 17:29:10;;;;;;;4.62;2.00;;;14.60;63.40;;;;;;2362132;53;20969;-65
2021/04/11 17:32:01;;;;;;;8.98;3.87;;;14.50;63.70;;;;;;2621685;52;20966;-65
2021/04/11 17:35:04;;;;;;;12.75;5.68;;;14.60;64.00;;;;;;2622208;52;20991;-65
2021/04/11 17:37:38;;;;;;;11.57;5.40;;;14.60;64.40;;;;;;2349094;53;21008;-65